Time;durP1;ratioP1;P1;durP2;ratioP2;P2;SDS_P1;SDS_P2;PMS_P1;PMS_P2;Temp;Humidity;BMP_temperature;BMP_pressure;BME280_temperature;BME280_humidity;BME280_pressure;Samples;Min_cycle;Max_cycle;Signal;HPM_P1;HPM_P2
2022/08/13 00:00:36;;;;;;;12.75;8.90;;;19.90;99.90;;;;;;4886279;29;20462;-93
2022/08/13 00:03:13;;;;;;;12.50;8.40;;;19.90;99.90;;;;;;4902870;29;20064;-93
2022/08/13 00:05:50;;;;;;;13.57;9.02;;;19.80;99.90;;;;;;4890018;29;20032;-93
2022/08/13 00:08:25;;;;;;;13.65;9.18;;;19.80;99.90;;;;;;4886760;29;20068;-93
2022/08/13 00:10:52;;;;;;;12.90;8.82;;;19.90;99.90;;;;;;4883900;29;20055;-92
2022/08/13 00:13:23;;;;;;;11.65;9.02;;;19.80;99.90;;;;;;4885102;29;20032;-93
2022/08/13 00:15:59;;;;;;;13.35;9.07;;;19.80;99.90;;;;;;4889232;29;20032;-93
2022/08/13 00:18:29;;;;;;;13.60;9.20;;;19.80;99.90;;;;;;4885496;29;20486;-93
2022/08/13 00:20:59;;;;;;;12.32;8.70;;;19.70;99.90;;;;;;4884680;29;20463;-92
2022/08/13 00:23:28;;;;;;;12.38;8.63;;;19.70;99.90;;;;;;4884812;29;20206;-93
2022/08/13 00:25:57;;;;;;;17.98;10.55;;;19.70;99.90;;;;;;4884924;29;20123;-94
2022/08/13 00:28:32;;;;;;;12.40;9.85;;;19.70;99.90;;;;;;4900397;29;20438;-93
2022/08/13 00:30:59;;;;;;;14.00;9.80;;;19.70;99.90;;;;;;4884115;29;20103;-93
2022/08/13 00:33:26;;;;;;;14.20;9.63;;;19.70;99.90;;;;;;4884233;29;20033;-93
2022/08/13 00:35:54;;;;;;;17.00;11.48;;;19.70;99.90;;;;;;4883929;29;20123;-92
2022/08/13 00:38:30;;;;;;;15.93;9.98;;;19.70;99.90;;;;;;4884113;29;20029;-93
2022/08/13 00:40:59;;;;;;;14.77;9.68;;;19.70;99.90;;;;;;4884379;29;20036;-93
2022/08/13 00:43:33;;;;;;;14.27;9.38;;;19.70;99.90;;;;;;4884089;29;20033;-93
2022/08/13 00:46:01;;;;;;;;;;;19.70;99.90;;;;;;4890679;29;20028;-92
2022/08/13 00:48:46;;;;;;;14.88;8.55;;;19.80;99.90;;;;;;4903893;29;20286;-93
2022/08/13 00:51:16;;;;;;;12.63;8.38;;;19.80;99.90;;;;;;4883805;29;20040;-93
2022/08/13 00:53:44;;;;;;;10.27;8.15;;;19.80;99.90;;;;;;4885467;29;20594;-92
2022/08/13 00:56:12;;;;;;;11.93;7.68;;;19.80;99.90;;;;;;4883824;29;20037;-93
2022/08/13 00:58:40;;;;;;;11.77;8.68;;;19.80;99.90;;;;;;4883684;29;20041;-93
2022/08/13 01:01:09;;;;;;;14.93;9.63;;;19.80;99.90;;;;;;4883704;29;20029;-93
2022/08/13 01:03:38;;;;;;;14.35;8.30;;;19.80;99.90;;;;;;4883524;29;20036;-93
2022/08/13 01:06:08;;;;;;;10.35;7.85;;;19.70;99.90;;;;;;4883512;29;20402;-93
2022/08/13 01:08:38;;;;;;;12.65;8.63;;;19.70;99.90;;;;;;4883513;29;20044;-92
2022/08/13 01:11:11;;;;;;;12.82;8.65;;;19.70;99.90;;;;;;4883565;29;20036;-94
2022/08/13 01:13:41;;;;;;;12.60;8.75;;;19.70;99.90;;;;;;4883439;29;20043;-94
2022/08/13 01:16:18;;;;;;;14.38;9.82;;;19.60;99.90;;;;;;4885286;29;20111;-93
2022/08/13 01:18:50;;;;;;;14.18;9.43;;;19.60;99.90;;;;;;4884067;29;20398;-93
2022/08/13 01:21:23;;;;;;;15.05;10.23;;;19.50;99.90;;;;;;4884157;29;20036;-94
2022/08/13 01:23:53;;;;;;;16.55;9.77;;;19.50;99.90;;;;;;4899145;29;20033;-93
2022/08/13 01:26:23;;;;;;;16.52;10.70;;;19.50;99.90;;;;;;4884246;29;20055;-93
2022/08/13 01:29:04;;;;;;;15.18;9.95;;;19.50;99.90;;;;;;4899362;29;20065;-94
2022/08/13 01:31:34;;;;;;;17.35;9.85;;;19.50;99.90;;;;;;4886197;29;20119;-93
2022/08/13 01:34:06;;;;;;;14.18;9.20;;;19.40;99.90;;;;;;4902883;29;20032;-93
2022/08/13 01:36:43;;;;;;;15.38;9.40;;;19.40;99.90;;;;;;4908353;29;20354;-92
2022/08/13 01:39:19;;;;;;;16.58;8.55;;;19.40;99.90;;;;;;4924822;29;20047;-93
2022/08/13 01:41:47;;;;;;;14.07;9.82;;;19.30;99.90;;;;;;4909578;29;20485;-93
2022/08/13 01:44:21;;;;;;;14.40;10.90;;;19.30;99.90;;;;;;4901714;29;20043;-93
2022/08/13 01:52:59;;;;;;;16.88;11.77;;;19.40;99.90;;;;;;4902399;29;20398;-94
2022/08/13 01:55:42;;;;;;;16.50;11.00;;;19.40;99.90;;;;;;4904054;29;20096;-93
2022/08/13 01:58:26;;;;;;;17.17;10.95;;;19.50;99.90;;;;;;4904524;29;20038;-93
2022/08/13 02:01:02;;;;;;;18.65;11.13;;;19.60;99.90;;;;;;4904836;29;20063;-93
2022/08/13 02:03:46;;;;;;;14.98;11.27;;;19.60;99.90;;;;;;4911011;29;20043;-93
2022/08/13 02:06:34;;;;;;;14.88;11.25;;;19.60;99.90;;;;;;4910335;29;20036;-92
2022/08/13 02:09:04;;;;;;;16.13;10.60;;;19.60;99.90;;;;;;4910868;29;20056;-93
2022/08/13 02:11:36;;;;;;;14.73;10.52;;;19.70;99.90;;;;;;4896768;29;20032;-93
2022/08/13 02:14:22;;;;;;;16.38;9.95;;;19.80;99.90;;;;;;4916231;29;20556;-93
2022/08/13 02:17:30;;;;;;;16.90;10.80;;;19.80;99.90;;;;;;4912642;29;20060;-92
2022/08/13 02:19:58;;;;;;;19.27;10.85;;;19.90;99.90;;;;;;4903914;29;20032;-94
2022/08/13 02:22:49;;;;;;;15.77;11.52;;;20.00;99.90;;;;;;4905188;29;20478;-94
2022/08/13 02:25:26;;;;;;;19.77;11.25;;;20.10;99.90;;;;;;4916178;29;20029;-92
2022/08/13 02:28:02;;;;;;;19.17;11.48;;;20.10;99.90;;;;;;4909290;29;20044;-93
2022/08/13 02:30:42;;;;;;;16.95;10.48;;;20.10;99.90;;;;;;4898906;29;20041;-93
2022/08/13 02:33:23;;;;;;;16.33;10.35;;;20.10;99.90;;;;;;4901294;29;20032;-92
2022/08/13 02:36:10;;;;;;;15.15;10.27;;;20.10;99.90;;;;;;4889640;29;20485;-93
2022/08/13 02:39:09;;;;;;;17.30;12.07;;;20.10;99.90;;;;;;4902766;29;20080;-92
2022/08/13 02:41:47;;;;;;;17.55;11.18;;;20.10;99.90;;;;;;4869480;29;20044;-93
2022/08/13 02:44:43;;;;;;;18.05;11.48;;;20.10;99.90;;;;;;4873606;29;20025;-93
2022/08/13 02:47:23;;;;;;;17.30;12.35;;;20.20;99.90;;;;;;4870103;29;20110;-94
2022/08/13 02:50:26;;;;;;;19.50;11.93;;;20.10;99.90;;;;;;4870205;29;20041;-92
2022/08/13 02:53:46;;;;;;;13.98;11.38;;;20.20;99.90;;;;;;4884930;29;20125;-94
2022/08/13 02:56:24;;;;;;;18.05;10.90;;;20.20;99.90;;;;;;4867924;29;20041;-93
2022/08/13 02:59:10;;;;;;;15.32;11.48;;;20.20;99.90;;;;;;4870034;29;20060;-93
2022/08/13 03:02:05;;;;;;;21.25;12.40;;;20.20;99.90;;;;;;4883347;29;20104;-93
2022/08/13 03:04:58;;;;;;;18.48;12.02;;;20.20;99.90;;;;;;4869891;29;20424;-93
2022/08/13 03:08:08;;;;;;;18.20;11.90;;;20.20;99.90;;;;;;4869475;29;20049;-94
2022/08/13 03:10:54;;;;;;;21.17;13.05;;;20.30;99.90;;;;;;4869360;29;20039;-93
2022/08/13 03:13:46;;;;;;;18.88;11.80;;;20.30;99.90;;;;;;4884223;29;20025;-92
2022/08/13 03:16:44;;;;;;;19.17;12.20;;;20.30;99.90;;;;;;4982858;23;20139;-93
2022/08/13 03:19:21;;;;;;;18.83;11.75;;;20.30;99.90;;;;;;4873756;29;20039;-93
2022/08/13 03:21:50;;;;;;;18.55;12.50;;;20.30;99.90;;;;;;4892493;29;20029;-92
2022/08/13 03:24:27;;;;;;;16.83;13.10;;;20.30;99.90;;;;;;4883799;29;20056;-93
2022/08/13 03:27:35;;;;;;;17.40;12.35;;;20.30;99.90;;;;;;4871333;29;20414;-94
2022/08/13 03:30:17;;;;;;;22.88;13.93;;;20.20;99.90;;;;;;4881917;29;20076;-93
2022/08/13 03:32:54;;;;;;;17.58;12.60;;;20.20;99.90;;;;;;4883729;29;20116;-93
2022/08/13 03:35:46;;;;;;;23.63;13.80;;;20.20;99.90;;;;;;4883396;29;20041;-93
2022/08/13 03:38:36;;;;;;;;;;;;;;;;;;;;;
2022/08/13 03:41:42;;;;;;;20.60;13.57;;;20.20;99.90;;;;;;4868855;29;20487;-94
2022/08/13 03:44:35;;;;;;;18.73;12.65;;;20.20;99.90;;;;;;4867718;29;20057;-93
2022/08/13 03:47:23;;;;;;;19.70;12.65;;;20.20;99.90;;;;;;4883459;29;20033;-94
2022/08/13 04:04:12;;;;;;;22.83;15.00;;;20.20;99.90;;;;;;4927397;23;20048;-93
2022/08/13 04:06:46;;;;;;;23.70;13.82;;;20.20;99.90;;;;;;4878251;29;20029;-93
2022/08/13 04:09:13;;;;;;;21.70;14.15;;;20.20;99.90;;;;;;4892671;29;20064;-93
2022/08/13 04:18:20;;;;;;;20.83;14.57;;;20.40;99.90;;;;;;5446515;23;20060;-92
2022/08/13 04:21:09;;;;;;;24.35;14.02;;;20.40;99.90;;;;;;4870096;29;20033;-93
2022/08/13 04:23:49;;;;;;;23.23;14.85;;;20.30;99.90;;;;;;4870058;29;20084;-93
2022/08/13 04:26:30;;;;;;;26.20;14.57;;;20.40;99.90;;;;;;4886738;29;20039;-93
2022/08/13 05:22:32;;;;;;;;;;;;;;;;;;;;;
2022/08/13 05:26:04;;;;;;;;;;;;;;;;;;;;;
2022/08/13 05:29:20;;;;;;;;;;;;;;;;;;;;;
2022/08/13 05:32:28;;;;;;;21.40;11.27;;;25.70;99.90;;;;;;4773219;30;20056;-93
2022/08/13 05:35:53;;;;;;;;;;;;;;;;;;;;;
2022/08/13 05:38:55;;;;;;;16.20;10.90;;;24.90;99.90;;;;;;4687922;30;20050;-95
2022/08/13 05:41:59;;;;;;;16.88;11.40;;;25.70;99.90;;;;;;4688703;30;20053;-93
2022/08/13 05:44:33;;;;;;;16.15;10.43;;;27.00;99.90;;;;;;4692044;30;20037;-94
2022/08/13 05:47:21;;;;;;;13.80;11.00;;;27.90;99.90;;;;;;4689197;30;20050;-94
2022/08/13 05:49:51;;;;;;;16.02;11.68;;;28.60;99.90;;;;;;4688479;30;20084;-94
2022/08/13 05:52:39;;;;;;;14.25;12.75;;;29.40;99.90;;;;;;4690234;30;20489;-93
2022/08/13 05:55:11;;;;;;;18.80;12.38;;;30.00;99.90;;;;;;4688551;30;20066;-94
2022/08/13 05:57:41;;;;;;;16.15;11.77;;;30.00;99.90;;;;;;4681275;30;20108;-94
2022/08/13 06:03:27;;;;;;;14.20;12.63;;;30.20;99.90;;;;;;4788989;30;20410;-94
2022/08/13 06:05:56;;;;;;;;;;;30.10;99.90;;;;;;4774510;30;20043;-94
2022/08/13 06:08:29;;;;;;;13.48;12.27;;;30.40;99.90;;;;;;4774503;30;19918;-95
2022/08/13 06:11:32;;;;;;;15.48;14.00;;;30.60;99.90;;;;;;4783207;29;20034;-94
2022/08/13 06:14:02;;;;;;;16.48;14.88;;;30.50;99.90;;;;;;4793187;29;20055;-95
2022/08/13 06:16:32;;;;;;;18.55;14.52;;;31.20;99.90;;;;;;4778186;29;20383;-94
2022/08/13 06:19:03;;;;;;;14.25;12.93;;;31.90;99.90;;;;;;4794409;29;20050;-93
2022/08/13 06:21:30;;;;;;;15.20;13.68;;;31.70;99.90;;;;;;4790603;29;20065;-93
2022/08/13 06:23:57;;;;;;;15.55;14.07;;;31.40;99.90;;;;;;4775665;29;20035;-94
2022/08/13 06:26:29;;;;;;;17.15;15.48;;;31.90;99.90;;;;;;4775978;29;20027;-93
2022/08/13 06:28:59;;;;;;;15.43;14.23;;;31.60;99.90;;;;;;4775888;29;20046;-94
2022/08/13 06:31:30;;;;;;;15.20;14.00;;;31.20;99.90;;;;;;4775592;29;20073;-94
2022/08/13 06:33:57;;;;;;;16.45;15.20;;;31.20;99.90;;;;;;4775485;29;20060;-94
2022/08/13 06:36:29;;;;;;;16.40;15.02;;;30.90;99.90;;;;;;4775932;29;20039;-93
2022/08/13 06:39:06;;;;;;;16.42;14.95;;;31.30;99.90;;;;;;4775944;29;20521;-94
2022/08/13 06:41:39;;;;;;;16.55;15.05;;;31.10;99.90;;;;;;4775899;29;20058;-94
2022/08/13 06:44:18;;;;;;;15.02;13.88;;;31.10;99.90;;;;;;4772596;30;20074;-93
2022/08/13 06:46:46;;;;;;;16.15;14.85;;;29.50;99.90;;;;;;4773807;30;20153;-93
2022/08/13 06:49:15;;;;;;;14.77;13.55;;;29.60;99.90;;;;;;4787780;29;20031;-92
2022/08/13 06:57:08;;;;;;;16.40;14.90;;;30.20;99.90;;;;;;5893564;23;20039;-92
2022/08/13 07:14:59;;;;;;;14.10;12.82;;;30.20;99.90;;;;;;5263159;23;20522;-93
2022/08/13 07:17:28;;;;;;;15.07;13.52;;;29.40;99.90;;;;;;4827353;29;20033;-92
2022/08/13 07:19:55;;;;;;;14.00;12.60;;;28.90;99.90;;;;;;4828820;29;20403;-94
2022/08/13 07:22:22;;;;;;;14.55;13.02;;;28.30;99.90;;;;;;4830161;29;20030;-93
2022/08/13 07:24:49;;;;;;;13.90;12.55;;;27.80;99.90;;;;;;4830716;29;20432;-93
2022/08/13 07:27:16;;;;;;;16.25;14.73;;;27.60;99.90;;;;;;4845449;29;20080;-94
2022/08/13 07:29:49;;;;;;;14.95;13.55;;;28.40;99.90;;;;;;4829853;29;20129;-93
2022/08/13 07:32:17;;;;;;;14.73;13.57;;;29.50;99.90;;;;;;4829896;29;20038;-93
2022/08/13 07:34:44;;;;;;;15.60;14.50;;;30.30;99.90;;;;;;4829746;29;20129;-92
2022/08/13 07:37:20;;;;;;;16.83;15.50;;;31.00;99.90;;;;;;4844914;29;20029;-95
2022/08/13 07:39:47;;;;;;;16.13;14.93;;;31.30;99.90;;;;;;4845354;29;20487;-94
2022/08/13 07:42:16;;;;;;;17.27;15.73;;;31.70;99.90;;;;;;4845246;29;20030;-93
2022/08/13 07:44:42;;;;;;;16.55;15.10;;;31.90;99.90;;;;;;4844882;29;20038;-93
2022/08/13 07:47:15;;;;;;;17.67;16.33;;;32.20;99.90;;;;;;4829382;29;20075;-93
2022/08/13 07:49:42;;;;;;;17.25;15.80;;;32.00;99.90;;;;;;4845090;29;20072;-93
2022/08/13 07:52:09;;;;;;;17.30;15.90;;;32.70;99.90;;;;;;4845318;29;20030;-94
2022/08/13 07:54:37;;;;;;;17.42;15.95;;;32.90;99.90;;;;;;4847613;29;20058;-92
2022/08/13 07:57:12;;;;;;;17.30;15.90;;;32.60;99.90;;;;;;4845916;29;20117;-94
2022/08/13 07:59:39;;;;;;;16.75;15.60;;;32.70;99.90;;;;;;4847134;29;20032;-94
2022/08/13 08:02:06;;;;;;;16.08;14.90;;;31.80;99.90;;;;;;4846287;29;20126;-92
2022/08/13 08:04:35;;;;;;;17.17;15.77;;;31.60;99.90;;;;;;4845399;29;20041;-94
2022/08/13 08:07:03;;;;;;;17.13;15.65;;;31.90;99.90;;;;;;4845551;29;20042;-93
2022/08/13 08:09:30;;;;;;;16.95;15.30;;;32.30;99.90;;;;;;4847845;29;20034;-92
2022/08/13 08:14:45;;;;;;;18.00;16.52;;;32.60;99.90;;;;;;4862152;29;20133;-94
2022/08/13 08:17:12;;;;;;;16.95;15.68;;;32.50;99.90;;;;;;4831733;29;20026;-94
2022/08/13 08:19:41;;;;;;;17.63;16.20;;;32.80;99.90;;;;;;4846966;29;20038;-94
2022/08/13 08:22:11;;;;;;;17.65;16.20;;;32.70;99.90;;;;;;4845080;29;20030;-93
2022/08/13 08:24:45;;;;;;;16.92;15.68;;;32.50;99.90;;;;;;4845126;29;20038;-94
2022/08/13 08:27:12;;;;;;;17.40;16.15;;;32.10;99.90;;;;;;4844124;29;20555;-93
2022/08/13 08:29:40;;;;;;;16.90;15.57;;;32.00;99.90;;;;;;4855678;29;20026;-93
2022/08/13 08:32:08;;;;;;;17.20;15.65;;;31.60;99.90;;;;;;4842948;29;20025;-93
2022/08/13 08:34:47;;;;;;;17.75;16.55;;;31.50;99.90;;;;;;4853784;29;20028;-93
2022/08/13 09:00:18;;;;;;;16.80;15.50;;;31.30;99.90;;;;;;4906409;29;20045;-94
2022/08/13 09:02:48;;;;;;;17.80;16.30;;;31.10;99.90;;;;;;4885511;29;20486;-92
2022/08/13 09:05:18;;;;;;;16.60;15.30;;;30.40;99.90;;;;;;4884454;29;20033;-92
2022/08/13 09:07:46;;;;;;;18.33;16.45;;;29.80;99.90;;;;;;4884939;29;20382;-94
2022/08/13 09:10:15;;;;;;;17.70;16.27;;;29.50;99.90;;;;;;4852560;29;20029;-92
2022/08/13 09:12:44;;;;;;;17.42;16.13;;;29.70;99.90;;;;;;4854232;29;20440;-92
2022/08/13 09:15:17;;;;;;;17.00;15.70;;;30.20;99.90;;;;;;4859378;29;20029;-93
2022/08/13 09:18:08;;;;;;;17.55;16.15;;;30.90;99.90;;;;;;4864340;29;20061;-93
2022/08/13 09:20:58;;;;;;;17.20;15.95;;;31.70;99.90;;;;;;4853292;29;20040;-93
2022/08/13 09:23:34;;;;;;;17.92;16.42;;;31.70;99.90;;;;;;4857580;29;20033;-94
2022/08/13 09:26:05;;;;;;;17.92;16.58;;;31.90;99.90;;;;;;4855531;29;20121;-93
2022/08/13 09:28:47;;;;;;;17.10;15.80;;;31.90;99.90;;;;;;4857553;29;20040;-94
2022/08/13 09:31:16;;;;;;;17.45;16.23;;;31.70;99.90;;;;;;4854252;29;20040;-93
2022/08/13 09:33:46;;;;;;;17.67;16.13;;;31.10;99.90;;;;;;4855413;29;20033;-93
2022/08/13 09:36:18;;;;;;;17.77;16.48;;;30.80;99.90;;;;;;4853151;29;20548;-93
2022/08/13 09:38:51;;;;;;;16.90;15.80;;;30.70;99.90;;;;;;4853874;29;20045;-92
2022/08/13 09:41:49;;;;;;;17.20;15.77;;;31.00;99.90;;;;;;4867546;29;20044;-93
2022/08/13 09:44:26;;;;;;;16.65;15.45;;;30.50;99.90;;;;;;4846012;29;20191;-93
2022/08/13 09:47:15;;;;;;;16.95;15.52;;;29.70;99.90;;;;;;4847428;29;20069;-93
2022/08/13 09:50:23;;;;;;;16.42;15.23;;;29.90;99.90;;;;;;4848703;29;20104;-93
2022/08/13 09:52:58;;;;;;;17.38;16.02;;;29.90;99.90;;;;;;4826617;29;20058;-92
2022/08/13 09:55:24;;;;;;;16.80;15.50;;;30.10;99.90;;;;;;4809139;29;20042;-92
2022/08/13 09:58:10;;;;;;;17.23;15.90;;;30.40;99.90;;;;;;4811710;29;20186;-94
2022/08/13 10:04:18;;;;;;;15.80;14.52;;;30.60;99.90;;;;;;4989747;23;20057;-94
2022/08/13 10:07:12;;;;;;;17.52;15.98;;;30.60;99.90;;;;;;4807270;29;20046;-91
2022/08/13 10:09:39;;;;;;;17.13;15.93;;;30.80;99.90;;;;;;4800542;29;20072;-91
2022/08/13 10:12:08;;;;;;;17.00;15.60;;;30.30;99.90;;;;;;4864954;29;20041;-91
2022/08/13 10:14:35;;;;;;;17.08;15.85;;;29.60;99.90;;;;;;4872886;29;20032;-90
2022/08/13 10:17:04;;;;;;;17.17;15.57;;;29.30;99.90;;;;;;4871096;29;20059;-91
2022/08/13 10:19:31;;;;;;;16.27;15.07;;;28.80;99.90;;;;;;4873259;29;20036;-91
2022/08/13 10:21:59;;;;;;;17.60;16.08;;;28.90;99.90;;;;;;4876899;29;20069;-92
2022/08/13 10:24:26;;;;;;;16.70;15.45;;;29.10;99.90;;;;;;4872738;29;20029;-93
2022/08/13 10:26:53;;;;;;;16.45;15.15;;;29.30;99.90;;;;;;4849284;29;20123;-92
2022/08/13 10:29:19;;;;;;;16.98;15.77;;;30.00;99.90;;;;;;4864486;29;20033;-92
2022/08/13 10:31:46;;;;;;;16.85;15.65;;;30.50;99.90;;;;;;4864368;29;20391;-93
2022/08/13 10:34:19;;;;;;;17.77;16.38;;;30.50;99.90;;;;;;4864891;29;20041;-92
2022/08/13 10:36:46;;;;;;;17.27;15.98;;;30.50;99.90;;;;;;4866036;29;20044;-92
2022/08/13 10:39:12;;;;;;;17.10;15.80;;;31.00;99.90;;;;;;4882751;29;20039;-93
2022/08/13 10:41:44;;;;;;;17.23;15.85;;;30.80;99.90;;;;;;4879654;29;20041;-91
2022/08/13 10:44:13;;;;;;;17.13;15.82;;;30.80;99.90;;;;;;4868595;29;20045;-93
2022/08/13 10:46:41;;;;;;;16.40;15.20;;;30.20;99.90;;;;;;4848849;29;20029;-92
2022/08/13 10:49:10;;;;;;;16.75;15.55;;;30.30;99.90;;;;;;4848890;29;20088;-93
2022/08/13 10:51:38;;;;;;;17.25;15.77;;;30.30;99.90;;;;;;4864974;29;20025;-92
2022/08/13 10:54:07;;;;;;;16.85;15.65;;;30.50;99.90;;;;;;4865402;29;20037;-92
2022/08/13 10:56:37;;;;;;;16.92;15.50;;;30.50;99.90;;;;;;4867529;29;20096;-92
2022/08/13 10:59:05;;;;;;;17.50;16.20;;;30.00;99.90;;;;;;4870882;29;20037;-93
2022/08/13 11:01:32;;;;;;;18.45;16.92;;;30.00;99.90;;;;;;4867572;29;20521;-92
2022/08/13 11:04:04;;;;;;;16.75;15.45;;;30.00;99.90;;;;;;4853022;29;20033;-94
2022/08/13 11:06:36;;;;;;;16.92;15.52;;;30.00;99.90;;;;;;4869139;29;20378;-92
2022/08/13 11:09:06;;;;;;;16.23;15.07;;;29.70;99.90;;;;;;4867952;29;20487;-93
2022/08/13 11:11:34;;;;;;;15.85;14.75;;;29.00;99.90;;;;;;4868269;29;20033;-92
2022/08/13 11:14:02;;;;;;;17.00;15.60;;;28.60;99.90;;;;;;4864810;29;20077;-93
2022/08/13 11:19:28;;;;;;;16.58;15.25;;;28.70;99.90;;;;;;4867325;29;20092;-92
2022/08/13 11:22:01;;;;;;;16.73;15.32;;;29.00;99.90;;;;;;5059201;23;20558;-93
2022/08/13 11:30:11;;;;;;;16.63;15.32;;;30.10;99.90;;;;;;5019027;23;20056;-93
2022/08/13 11:32:38;;;;;;;16.55;15.23;;;29.70;99.90;;;;;;4870390;29;20024;-93
2022/08/13 11:35:06;;;;;;;17.10;15.63;;;29.60;99.90;;;;;;4870329;29;20043;-93
2022/08/13 11:37:44;;;;;;;15.93;14.75;;;29.70;99.90;;;;;;4858722;29;20033;-93
2022/08/13 11:40:33;;;;;;;15.70;14.57;;;29.30;99.90;;;;;;4864650;29;20085;-93
2022/08/13 11:43:07;;;;;;;16.52;15.23;;;29.10;99.90;;;;;;4873933;29;20041;-93
2022/08/13 11:45:34;;;;;;;16.20;15.05;;;29.40;99.90;;;;;;4852392;29;20045;-93
2022/08/13 11:48:19;;;;;;;15.88;14.73;;;29.30;99.90;;;;;;4854534;29;20041;-93
2022/08/13 11:53:28;;;;;;;16.77;15.48;;;29.40;99.90;;;;;;5060661;23;19922;-93
2022/08/13 11:55:54;;;;;;;15.45;14.45;;;29.60;99.90;;;;;;4863577;29;20037;-94
2022/08/13 11:58:39;;;;;;;16.42;15.13;;;29.50;99.90;;;;;;4879693;29;20029;-94
2022/08/13 12:04:18;;;;;;;15.98;14.95;;;29.20;99.90;;;;;;5091046;23;20072;-95
2022/08/13 12:06:51;;;;;;;16.45;15.02;;;29.00;99.90;;;;;;4886296;29;20017;-93
2022/08/13 12:12:31;;;;;;;15.95;14.65;;;28.60;99.90;;;;;;5099991;23;20045;-92
2022/08/13 12:15:01;;;;;;;15.75;14.65;;;28.30;99.90;;;;;;4893263;29;20048;-92
2022/08/13 12:18:04;;;;;;;15.65;14.32;;;28.30;99.90;;;;;;5157535;24;20124;-93
2022/08/13 12:29:31;;;;;;;15.93;14.68;;;28.00;99.90;;;;;;5907305;23;21193;-92
2022/08/13 12:37:48;;;;;;;15.20;14.00;;;28.00;99.90;;;;;;5215037;23;20056;-92
2022/08/13 12:40:18;;;;;;;15.18;13.93;;;28.20;99.90;;;;;;4874302;29;20025;-93
2022/08/13 12:42:44;;;;;;;15.07;13.88;;;28.10;99.90;;;;;;4872829;29;20040;-93
2022/08/13 12:45:16;;;;;;;14.95;13.70;;;28.30;99.90;;;;;;4871365;29;20029;-93
2022/08/13 12:47:46;;;;;;;15.10;13.93;;;28.10;99.90;;;;;;4866127;29;20059;-93
2022/08/13 12:50:13;;;;;;;14.55;13.52;;;27.90;99.90;;;;;;4859600;29;20062;-93
2022/08/13 12:52:39;;;;;;;13.77;12.88;;;27.90;99.90;;;;;;4992742;24;20056;-92
2022/08/13 12:55:07;;;;;;;15.63;14.27;;;28.10;99.90;;;;;;4888772;29;20063;-92
2022/08/13 12:57:33;;;;;;;16.20;14.85;;;28.30;99.90;;;;;;4892578;29;20025;-92
2022/08/13 13:00:00;;;;;;;15.18;14.07;;;28.50;99.90;;;;;;4841860;29;20033;-93
2022/08/13 13:02:27;;;;;;;15.30;14.10;;;28.70;99.90;;;;;;4862531;29;20041;-92
2022/08/13 13:04:53;;;;;;;15.23;14.13;;;28.70;99.90;;;;;;4872186;29;20029;-93
2022/08/13 13:07:20;;;;;;;15.35;13.75;;;28.50;99.90;;;;;;4861406;29;20041;-93
2022/08/13 13:09:50;;;;;;;15.25;14.13;;;28.40;99.90;;;;;;4882537;29;20062;-93
2022/08/13 13:12:19;;;;;;;15.73;14.43;;;28.50;99.90;;;;;;4848144;29;20041;-92
2022/08/13 13:14:48;;;;;;;14.85;13.73;;;28.80;99.90;;;;;;4860417;29;20040;-92
2022/08/13 13:17:14;;;;;;;15.00;13.88;;;28.80;99.90;;;;;;4881846;29;20040;-92
2022/08/13 13:19:41;;;;;;;15.35;14.13;;;28.50;99.90;;;;;;4883350;29;20049;-92
2022/08/13 13:22:07;;;;;;;14.73;13.63;;;28.30;99.90;;;;;;4869224;29;20431;-91
2022/08/13 13:24:34;;;;;;;15.70;14.38;;;28.10;99.90;;;;;;4873496;29;20021;-92
2022/08/13 13:27:00;;;;;;;15.07;13.88;;;28.40;99.90;;;;;;4878102;29;20037;-92
2022/08/13 13:29:28;;;;;;;15.18;13.98;;;28.90;99.90;;;;;;4861881;29;20490;-91
2022/08/13 13:31:54;;;;;;;14.68;13.68;;;29.30;99.90;;;;;;4880095;29;20033;-92
2022/08/13 13:34:22;;;;;;;15.23;14.02;;;29.70;99.90;;;;;;4874884;29;20032;-92
2022/08/13 13:36:49;;;;;;;15.73;14.60;;;29.70;99.90;;;;;;4843031;29;20030;-91
2022/08/13 13:39:16;;;;;;;15.68;14.45;;;29.30;99.90;;;;;;4843004;29;20042;-90
2022/08/13 13:41:42;;;;;;;14.95;13.93;;;28.80;99.90;;;;;;4827644;29;20026;-91
2022/08/13 13:44:09;;;;;;;14.90;13.90;;;28.70;99.90;;;;;;4842804;29;20030;-93
2022/08/13 13:46:36;;;;;;;14.95;13.85;;;28.60;99.90;;;;;;4845576;29;20043;-92
2022/08/13 13:49:03;;;;;;;16.08;14.65;;;28.60;99.90;;;;;;4830622;29;20061;-91
2022/08/13 13:51:33;;;;;;;16.25;14.82;;;28.40;99.90;;;;;;4844288;29;20065;-91
2022/08/13 13:54:01;;;;;;;15.82;14.43;;;28.10;99.90;;;;;;4845412;29;20054;-91
2022/08/13 13:56:27;;;;;;;15.02;13.90;;;28.00;99.90;;;;;;4828588;29;20034;-92
2022/08/13 13:58:54;;;;;;;14.88;13.88;;;27.80;99.90;;;;;;4832092;29;20430;-93
2022/08/13 14:01:21;;;;;;;15.32;13.95;;;28.00;99.90;;;;;;4831962;29;20120;-93
2022/08/13 14:06:37;;;;;;;15.40;14.13;;;28.40;99.90;;;;;;4866178;29;20511;-93
2022/08/13 14:09:03;;;;;;;17.23;15.55;;;28.60;99.90;;;;;;4850930;29;20033;-92
2022/08/13 14:11:30;;;;;;;15.50;14.23;;;28.60;99.90;;;;;;4852709;29;20033;-92
2022/08/13 14:13:57;;;;;;;15.00;13.88;;;28.50;99.90;;;;;;4852973;29;20029;-93
2022/08/13 14:16:24;;;;;;;15.23;14.10;;;28.40;99.90;;;;;;4847069;29;20041;-91
2022/08/13 14:18:51;;;;;;;15.57;14.40;;;28.40;99.90;;;;;;4818195;29;20091;-93
2022/08/13 14:21:19;;;;;;;15.20;14.15;;;28.80;99.90;;;;;;4818359;29;20045;-94
2022/08/13 14:23:45;;;;;;;15.80;14.52;;;28.90;99.90;;;;;;4817969;29;20010;-92
2022/08/13 14:26:14;;;;;;;15.30;14.10;;;28.70;99.90;;;;;;4816558;29;20166;-92
2022/08/13 14:28:44;;;;;;;14.85;13.75;;;28.50;99.90;;;;;;4814762;29;20129;-92
2022/08/13 14:31:15;;;;;;;15.18;13.90;;;28.10;99.90;;;;;;4831838;29;20069;-93
2022/08/13 14:33:43;;;;;;;14.45;13.45;;;27.70;99.90;;;;;;4818352;29;20108;-94
2022/08/13 14:36:10;;;;;;;14.27;13.13;;;27.50;99.90;;;;;;4816221;29;20049;-94
2022/08/13 14:38:36;;;;;;;25.83;17.90;;;27.20;99.90;;;;;;4816303;29;20030;-93
2022/08/13 14:41:03;;;;;;;31.63;17.23;;;26.50;99.90;;;;;;4818169;29;20062;-93
2022/08/13 14:43:53;;;;;;;43.55;23.38;;;24.80;99.90;;;;;;4821751;29;20030;-93
2022/08/13 14:46:58;;;;;;;16.70;11.18;;;22.90;99.90;;;;;;4833330;29;20070;-92
2022/08/13 14:49:25;;;;;;;25.85;14.75;;;20.70;99.90;;;;;;4852293;29;20049;-93
2022/08/13 14:51:55;;;;;;;1.40;0.93;;;20.80;99.90;;;;;;4875509;29;20097;-93
2022/08/13 14:54:29;;;;;;;0.65;0.65;;;21.10;99.90;;;;;;4874302;29;20108;-93
2022/08/13 14:56:55;;;;;;;0.73;0.57;;;21.30;99.90;;;;;;4868767;29;20064;-90
2022/08/13 14:59:22;;;;;;;0.32;0.32;;;21.60;99.90;;;;;;4852729;29;20085;-93
2022/08/13 15:01:52;;;;;;;2.05;1.13;;;21.70;99.90;;;;;;4870450;29;20044;-91
2022/08/13 15:04:22;;;;;;;7.40;1.95;;;21.60;99.90;;;;;;4869574;29;20443;-90
2022/08/13 15:06:48;;;;;;;0.30;0.30;;;21.70;99.90;;;;;;4867108;29;20547;-91
2022/08/13 15:09:15;;;;;;;3.03;0.80;;;21.90;99.90;;;;;;4852025;29;20037;-92
2022/08/13 15:11:45;;;;;;;0.65;0.65;;;22.00;99.90;;;;;;4867936;29;20052;-94
2022/08/13 15:14:28;;;;;;;0.57;0.57;;;22.10;99.90;;;;;;4889454;24;20053;-93
2022/08/13 15:16:57;;;;;;;0.77;0.73;;;22.30;99.90;;;;;;4871241;29;20137;-95
2022/08/13 15:19:26;;;;;;;1.67;0.93;;;22.60;99.90;;;;;;4852584;29;20038;-93
2022/08/13 15:44:52;;;;;;;2.03;1.60;;;24.00;99.90;;;;;;4863795;29;20141;-92
2022/08/13 16:01:58;;;;;;;0.63;0.63;;;23.90;99.90;;;;;;5801710;23;20052;-94
2022/08/13 16:04:30;;;;;;;1.17;1.13;;;23.80;99.90;;;;;;5340552;23;20049;-93
2022/08/13 16:10:10;;;;;;;0.80;0.80;;;23.80;99.90;;;;;;5020598;23;20044;31
2022/08/13 16:12:41;;;;;;;3.30;1.85;;;23.80;99.90;;;;;;4863907;29;20045;-94
2022/08/13 16:19:24;;;;;;;0.50;0.50;;;23.50;99.90;;;;;;4869750;29;20038;-94
2022/08/13 16:21:58;;;;;;;7.38;1.15;;;23.60;99.90;;;;;;4833485;29;20038;-94
2022/08/13 16:24:32;;;;;;;1.45;1.27;;;23.70;99.90;;;;;;4833879;29;20038;-93
2022/08/13 16:27:00;;;;;;;;;;;23.80;99.90;;;;;;4830162;29;20087;-94
2022/08/13 16:29:35;;;;;;;1.00;0.95;;;23.80;99.90;;;;;;4831160;29;19966;-94
2022/08/13 16:32:07;;;;;;;1.95;1.50;;;23.90;99.90;;;;;;4828794;29;20038;-93
2022/08/13 16:34:39;;;;;;;1.05;1.05;;;23.90;99.90;;;;;;4846325;29;20063;-94
2022/08/13 16:54:46;;;;;;;1.00;1.00;;;23.90;99.90;;;;;;4926572;24;20056;-93
2022/08/13 16:57:28;;;;;;;5.15;1.52;;;24.00;99.90;;;;;;5385187;23;20129;-93
2022/08/13 17:00:22;;;;;;;0.55;0.55;;;24.00;99.90;;;;;;4886895;29;20100;-92
2022/08/13 17:11:08;;;;;;;1.00;0.90;;;24.20;99.90;;;;;;4885134;29;20505;-91